sensor_id;sensor_type;location;lat;lon;timestamp;P1;durP1;ratioP1;P2;durP2;ratioP2
47912;SDS011;33676;51.006;17.180;2024-02-26T00:00:20;26.30;;;19.10;;
47912;SDS011;33676;51.006;17.180;2024-02-26T00:03:17;31.00;;;22.10;;
47912;SDS011;33676;51.006;17.180;2024-02-26T00:05:49;29.50;;;20.30;;
47912;SDS011;33676;51.006;17.180;2024-02-26T00:08:35;28.40;;;19.30;;
47912;SDS011;33676;51.006;17.180;2024-02-26T00:11:05;32.80;;;21.90;;
47912;SDS011;33676;51.006;17.180;2024-02-26T00:13:47;26.70;;;20.20;;
47912;SDS011;33676;51.006;17.180;2024-02-26T00:16:17;34.20;;;22.60;;
47912;SDS011;33676;51.006;17.180;2024-02-26T00:18:44;23.00;;;18.50;;
47912;SDS011;33676;51.006;17.180;2024-02-26T00:21:17;28.10;;;20.10;;
47912;SDS011;33676;51.006;17.180;2024-02-26T00:24:16;31.90;;;22.50;;
47912;SDS011;33676;51.006;17.180;2024-02-26T00:27:21;27.10;;;18.50;;
47912;SDS011;33676;51.006;17.180;2024-02-26T00:30:11;30.50;;;21.00;;
47912;SDS011;33676;51.006;17.180;2024-02-26T00:33:07;26.90;;;18.00;;
47912;SDS011;33676;51.006;17.180;2024-02-26T00:36:28;23.10;;;17.50;;
47912;SDS011;33676;51.006;17.180;2024-02-26T00:39:11;24.30;;;19.40;;
47912;SDS011;33676;51.006;17.180;2024-02-26T00:42:09;26.40;;;18.70;;
47912;SDS011;33676;51.006;17.180;2024-02-26T00:45:12;24.20;;;17.70;;
47912;SDS011;33676;51.006;17.180;2024-02-26T00:48:37;26.60;;;18.60;;
47912;SDS011;33676;51.006;17.180;2024-02-26T00:51:32;26.80;;;21.40;;
47912;SDS011;33676;51.006;17.180;2024-02-26T00:54:33;26.90;;;20.20;;
47912;SDS011;33676;51.006;17.180;2024-02-26T00:57:01;34.00;;;22.90;;
47912;SDS011;33676;51.006;17.180;2024-02-26T00:59:29;31.80;;;21.50;;
47912;SDS011;33676;51.006;17.180;2024-02-26T01:01:57;29.60;;;21.30;;
47912;SDS011;33676;51.006;17.180;2024-02-26T01:04:58;30.60;;;19.50;;
47912;SDS011;33676;51.006;17.180;2024-02-26T01:07:26;31.90;;;22.30;;
47912;SDS011;33676;51.006;17.180;2024-02-26T01:09:53;33.20;;;21.40;;
47912;SDS011;33676;51.006;17.180;2024-02-26T01:12:20;31.60;;;21.10;;
47912;SDS011;33676;51.006;17.180;2024-02-26T01:14:48;30.70;;;22.10;;
47912;SDS011;33676;51.006;17.180;2024-02-26T01:17:16;30.50;;;23.70;;
47912;SDS011;33676;51.006;17.180;2024-02-26T01:19:47;32.70;;;21.80;;
47912;SDS011;33676;51.006;17.180;2024-02-26T01:22:15;29.90;;;22.20;;
47912;SDS011;33676;51.006;17.180;2024-02-26T01:24:42;33.10;;;23.80;;
47912;SDS011;33676;51.006;17.180;2024-02-26T01:27:09;34.20;;;25.80;;
47912;SDS011;33676;51.006;17.180;2024-02-26T01:29:36;33.60;;;27.20;;
47912;SDS011;33676;51.006;17.180;2024-02-26T01:32:21;35.20;;;24.20;;
47912;SDS011;33676;51.006;17.180;2024-02-26T01:34:49;29.10;;;23.00;;
47912;SDS011;33676;51.006;17.180;2024-02-26T01:37:18;33.30;;;22.20;;
47912;SDS011;33676;51.006;17.180;2024-02-26T01:39:47;30.40;;;22.50;;
47912;SDS011;33676;51.006;17.180;2024-02-26T01:42:16;30.40;;;22.20;;
47912;SDS011;33676;51.006;17.180;2024-02-26T01:44:46;31.50;;;21.10;;
47912;SDS011;33676;51.006;17.180;2024-02-26T01:47:16;26.90;;;19.80;;
47912;SDS011;33676;51.006;17.180;2024-02-26T01:49:45;31.70;;;20.60;;
47912;SDS011;33676;51.006;17.180;2024-02-26T01:52:15;29.40;;;20.00;;
47912;SDS011;33676;51.006;17.180;2024-02-26T01:54:45;28.10;;;20.10;;
47912;SDS011;33676;51.006;17.180;2024-02-26T01:57:13;25.50;;;21.80;;
47912;SDS011;33676;51.006;17.180;2024-02-26T01:59:44;28.20;;;20.60;;
47912;SDS011;33676;51.006;17.180;2024-02-26T02:02:12;32.40;;;22.20;;
47912;SDS011;33676;51.006;17.180;2024-02-26T02:04:42;26.10;;;21.90;;
47912;SDS011;33676;51.006;17.180;2024-02-26T02:07:11;28.30;;;20.80;;
47912;SDS011;33676;51.006;17.180;2024-02-26T02:09:39;29.20;;;21.60;;
47912;SDS011;33676;51.006;17.180;2024-02-26T02:12:07;31.00;;;22.30;;
47912;SDS011;33676;51.006;17.180;2024-02-26T02:14:35;27.10;;;19.80;;
47912;SDS011;33676;51.006;17.180;2024-02-26T02:17:04;24.20;;;18.70;;
47912;SDS011;33676;51.006;17.180;2024-02-26T02:19:33;28.50;;;19.20;;
47912;SDS011;33676;51.006;17.180;2024-02-26T02:22:03;26.10;;;19.20;;
47912;SDS011;33676;51.006;17.180;2024-02-26T02:24:30;23.20;;;18.80;;
47912;SDS011;33676;51.006;17.180;2024-02-26T02:26:58;31.90;;;16.50;;
47912;SDS011;33676;51.006;17.180;2024-02-26T02:29:28;25.80;;;18.00;;
47912;SDS011;33676;51.006;17.180;2024-02-26T02:31:58;24.70;;;19.30;;
47912;SDS011;33676;51.006;17.180;2024-02-26T02:34:28;25.00;;;18.60;;
47912;SDS011;33676;51.006;17.180;2024-02-26T02:36:57;27.00;;;18.50;;
47912;SDS011;33676;51.006;17.180;2024-02-26T02:39:26;28.20;;;18.20;;
47912;SDS011;33676;51.006;17.180;2024-02-26T02:41:55;27.10;;;17.60;;
47912;SDS011;33676;51.006;17.180;2024-02-26T02:44:25;23.30;;;15.70;;
47912;SDS011;33676;51.006;17.180;2024-02-26T02:46:54;21.70;;;15.00;;
47912;SDS011;33676;51.006;17.180;2024-02-26T02:49:23;24.20;;;16.80;;
47912;SDS011;33676;51.006;17.180;2024-02-26T02:51:52;23.60;;;16.50;;
47912;SDS011;33676;51.006;17.180;2024-02-26T02:54:25;25.90;;;15.90;;
47912;SDS011;33676;51.006;17.180;2024-02-26T02:56:54;25.60;;;17.60;;
47912;SDS011;33676;51.006;17.180;2024-02-26T02:59:23;22.40;;;15.60;;
47912;SDS011;33676;51.006;17.180;2024-02-26T03:01:51;25.50;;;16.80;;
47912;SDS011;33676;51.006;17.180;2024-02-26T03:04:20;25.70;;;18.20;;
47912;SDS011;33676;51.006;17.180;2024-02-26T03:06:48;23.10;;;16.70;;
47912;SDS011;33676;51.006;17.180;2024-02-26T03:09:16;21.70;;;16.20;;
47912;SDS011;33676;51.006;17.180;2024-02-26T03:11:44;25.20;;;17.00;;
47912;SDS011;33676;51.006;17.180;2024-02-26T03:14:13;23.30;;;16.80;;
47912;SDS011;33676;51.006;17.180;2024-02-26T03:16:41;21.40;;;16.40;;
47912;SDS011;33676;51.006;17.180;2024-02-26T03:19:10;24.40;;;17.00;;
47912;SDS011;33676;51.006;17.180;2024-02-26T03:21:39;20.30;;;16.70;;
47912;SDS011;33676;51.006;17.180;2024-02-26T03:24:08;21.50;;;14.80;;
47912;SDS011;33676;51.006;17.180;2024-02-26T03:26:38;22.80;;;14.90;;
47912;SDS011;33676;51.006;17.180;2024-02-26T03:29:07;23.90;;;15.70;;
47912;SDS011;33676;51.006;17.180;2024-02-26T03:31:35;19.90;;;14.30;;
47912;SDS011;33676;51.006;17.180;2024-02-26T03:34:02;19.80;;;14.30;;
47912;SDS011;33676;51.006;17.180;2024-02-26T03:36:30;23.10;;;14.70;;
47912;SDS011;33676;51.006;17.180;2024-02-26T03:39:00;23.80;;;15.30;;
47912;SDS011;33676;51.006;17.180;2024-02-26T03:41:31;26.20;;;15.20;;
47912;SDS011;33676;51.006;17.180;2024-02-26T03:44:01;20.50;;;15.80;;
47912;SDS011;33676;51.006;17.180;2024-02-26T03:46:30;18.40;;;14.70;;
47912;SDS011;33676;51.006;17.180;2024-02-26T03:49:00;17.80;;;13.80;;
47912;SDS011;33676;51.006;17.180;2024-02-26T03:51:27;21.20;;;15.40;;
47912;SDS011;33676;51.006;17.180;2024-02-26T03:53:58;20.20;;;14.90;;
47912;SDS011;33676;51.006;17.180;2024-02-26T03:56:26;23.30;;;15.70;;
47912;SDS011;33676;51.006;17.180;2024-02-26T03:58:54;22.60;;;15.00;;
47912;SDS011;33676;51.006;17.180;2024-02-26T04:01:22;22.00;;;14.60;;
47912;SDS011;33676;51.006;17.180;2024-02-26T04:03:50;23.20;;;15.90;;
47912;SDS011;33676;51.006;17.180;2024-02-26T04:06:20;22.80;;;15.60;;
47912;SDS011;33676;51.006;17.180;2024-02-26T04:08:51;24.80;;;16.30;;
47912;SDS011;33676;51.006;17.180;2024-02-26T04:11:20;20.20;;;14.80;;
47912;SDS011;33676;51.006;17.180;2024-02-26T04:13:51;18.20;;;14.70;;
47912;SDS011;33676;51.006;17.180;2024-02-26T04:16:21;17.80;;;14.60;;
47912;SDS011;33676;51.006;17.180;2024-02-26T04:18:50;24.40;;;16.30;;
47912;SDS011;33676;51.006;17.180;2024-02-26T04:21:21;19.90;;;16.40;;
47912;SDS011;33676;51.006;17.180;2024-02-26T04:23:49;21.80;;;17.70;;
47912;SDS011;33676;51.006;17.180;2024-02-26T04:26:17;22.30;;;18.10;;
47912;SDS011;33676;51.006;17.180;2024-02-26T04:28:46;22.80;;;16.50;;
47912;SDS011;33676;51.006;17.180;2024-02-26T04:31:16;20.80;;;16.20;;
47912;SDS011;33676;51.006;17.180;2024-02-26T04:33:46;23.50;;;16.80;;
47912;SDS011;33676;51.006;17.180;2024-02-26T04:36:14;25.60;;;17.60;;
47912;SDS011;33676;51.006;17.180;2024-02-26T04:38:44;25.50;;;18.10;;
47912;SDS011;33676;51.006;17.180;2024-02-26T04:41:11;23.90;;;18.20;;
47912;SDS011;33676;51.006;17.180;2024-02-26T04:43:39;25.30;;;17.30;;
47912;SDS011;33676;51.006;17.180;2024-02-26T04:46:08;25.70;;;18.20;;
47912;SDS011;33676;51.006;17.180;2024-02-26T04:48:36;27.90;;;17.60;;
47912;SDS011;33676;51.006;17.180;2024-02-26T04:51:05;22.80;;;16.20;;
47912;SDS011;33676;51.006;17.180;2024-02-26T04:53:33;25.90;;;17.20;;
47912;SDS011;33676;51.006;17.180;2024-02-26T04:56:02;23.60;;;17.80;;
47912;SDS011;33676;51.006;17.180;2024-02-26T04:58:30;24.80;;;17.40;;
47912;SDS011;33676;51.006;17.180;2024-02-26T05:00:58;23.20;;;17.20;;
47912;SDS011;33676;51.006;17.180;2024-02-26T05:03:25;23.80;;;18.00;;
47912;SDS011;33676;51.006;17.180;2024-02-26T05:05:53;28.10;;;18.00;;
47912;SDS011;33676;51.006;17.180;2024-02-26T05:08:21;23.90;;;17.40;;
47912;SDS011;33676;51.006;17.180;2024-02-26T05:10:48;26.20;;;18.20;;
47912;SDS011;33676;51.006;17.180;2024-02-26T05:13:17;31.40;;;19.40;;
47912;SDS011;33676;51.006;17.180;2024-02-26T05:15:44;23.20;;;18.10;;
47912;SDS011;33676;51.006;17.180;2024-02-26T05:18:16;26.30;;;19.10;;
47912;SDS011;33676;51.006;17.180;2024-02-26T05:20:45;22.70;;;18.50;;
47912;SDS011;33676;51.006;17.180;2024-02-26T05:23:12;23.20;;;17.80;;
47912;SDS011;33676;51.006;17.180;2024-02-26T05:25:39;26.80;;;19.90;;
47912;SDS011;33676;51.006;17.180;2024-02-26T05:28:08;25.30;;;18.30;;
47912;SDS011;33676;51.006;17.180;2024-02-26T05:30:35;23.30;;;15.70;;
47912;SDS011;33676;51.006;17.180;2024-02-26T05:33:03;24.50;;;17.60;;
47912;SDS011;33676;51.006;17.180;2024-02-26T05:35:30;27.20;;;19.10;;
47912;SDS011;33676;51.006;17.180;2024-02-26T05:37:57;23.20;;;19.40;;
47912;SDS011;33676;51.006;17.180;2024-02-26T05:40:24;22.40;;;18.50;;
47912;SDS011;33676;51.006;17.180;2024-02-26T05:42:52;24.20;;;18.10;;
47912;SDS011;33676;51.006;17.180;2024-02-26T05:45:19;25.70;;;19.20;;
47912;SDS011;33676;51.006;17.180;2024-02-26T05:47:46;31.50;;;20.40;;
47912;SDS011;33676;51.006;17.180;2024-02-26T05:50:13;26.90;;;21.10;;
47912;SDS011;33676;51.006;17.180;2024-02-26T05:52:42;29.80;;;21.70;;
47912;SDS011;33676;51.006;17.180;2024-02-26T05:55:11;29.80;;;21.10;;
47912;SDS011;33676;51.006;17.180;2024-02-26T05:57:40;26.50;;;20.60;;
47912;SDS011;33676;51.006;17.180;2024-02-26T06:00:15;35.40;;;22.60;;
47912;SDS011;33676;51.006;17.180;2024-02-26T06:02:45;29.20;;;20.60;;
47912;SDS011;33676;51.006;17.180;2024-02-26T06:05:14;31.10;;;20.90;;
47912;SDS011;33676;51.006;17.180;2024-02-26T06:07:43;29.70;;;21.60;;
47912;SDS011;33676;51.006;17.180;2024-02-26T06:10:11;35.00;;;23.30;;
47912;SDS011;33676;51.006;17.180;2024-02-26T06:12:40;31.00;;;24.20;;
47912;SDS011;33676;51.006;17.180;2024-02-26T06:15:08;25.70;;;21.70;;
47912;SDS011;33676;51.006;17.180;2024-02-26T06:17:36;29.20;;;22.40;;
47912;SDS011;33676;51.006;17.180;2024-02-26T06:20:04;33.40;;;25.00;;
47912;SDS011;33676;51.006;17.180;2024-02-26T06:22:34;32.30;;;23.70;;
47912;SDS011;33676;51.006;17.180;2024-02-26T06:25:03;29.40;;;21.60;;
47912;SDS011;33676;51.006;17.180;2024-02-26T06:27:31;29.70;;;23.80;;
47912;SDS011;33676;51.006;17.180;2024-02-26T06:29:58;29.50;;;23.20;;
47912;SDS011;33676;51.006;17.180;2024-02-26T06:32:25;34.00;;;23.70;;
47912;SDS011;33676;51.006;17.180;2024-02-26T06:34:55;27.90;;;21.90;;
47912;SDS011;33676;51.006;17.180;2024-02-26T06:37:22;33.50;;;22.30;;
47912;SDS011;33676;51.006;17.180;2024-02-26T06:39:49;29.00;;;22.00;;
47912;SDS011;33676;51.006;17.180;2024-02-26T06:42:18;32.40;;;23.80;;
47912;SDS011;33676;51.006;17.180;2024-02-26T06:44:46;30.30;;;22.30;;
47912;SDS011;33676;51.006;17.180;2024-02-26T06:47:13;30.00;;;23.80;;
47912;SDS011;33676;51.006;17.180;2024-02-26T06:49:40;34.30;;;23.30;;
47912;SDS011;33676;51.006;17.180;2024-02-26T06:52:07;28.50;;;24.40;;
47912;SDS011;33676;51.006;17.180;2024-02-26T06:54:35;29.40;;;23.20;;
47912;SDS011;33676;51.006;17.180;2024-02-26T06:57:02;36.00;;;24.10;;
47912;SDS011;33676;51.006;17.180;2024-02-26T06:59:30;31.00;;;23.20;;
47912;SDS011;33676;51.006;17.180;2024-02-26T07:01:57;30.30;;;23.50;;
47912;SDS011;33676;51.006;17.180;2024-02-26T07:04:24;33.50;;;25.30;;
47912;SDS011;33676;51.006;17.180;2024-02-26T07:06:51;37.20;;;27.90;;
47912;SDS011;33676;51.006;17.180;2024-02-26T07:09:19;37.40;;;29.00;;
47912;SDS011;33676;51.006;17.180;2024-02-26T07:11:46;38.40;;;30.20;;
47912;SDS011;33676;51.006;17.180;2024-02-26T07:14:13;40.40;;;29.70;;
47912;SDS011;33676;51.006;17.180;2024-02-26T07:16:41;39.40;;;31.70;;
47912;SDS011;33676;51.006;17.180;2024-02-26T07:19:08;43.50;;;32.80;;
47912;SDS011;33676;51.006;17.180;2024-02-26T07:21:35;45.00;;;31.70;;
47912;SDS011;33676;51.006;17.180;2024-02-26T07:24:02;38.50;;;31.10;;
47912;SDS011;33676;51.006;17.180;2024-02-26T07:26:29;42.90;;;29.70;;
47912;SDS011;33676;51.006;17.180;2024-02-26T07:28:58;40.40;;;30.30;;
47912;SDS011;33676;51.006;17.180;2024-02-26T07:31:27;40.40;;;28.40;;
47912;SDS011;33676;51.006;17.180;2024-02-26T07:33:55;37.90;;;28.90;;
47912;SDS011;33676;51.006;17.180;2024-02-26T07:36:24;37.60;;;25.90;;
47912;SDS011;33676;51.006;17.180;2024-02-26T07:38:51;31.90;;;24.40;;
47912;SDS011;33676;51.006;17.180;2024-02-26T07:41:21;33.60;;;22.90;;
47912;SDS011;33676;51.006;17.180;2024-02-26T07:43:48;32.70;;;25.10;;
47912;SDS011;33676;51.006;17.180;2024-02-26T07:46:15;38.80;;;25.70;;
47912;SDS011;33676;51.006;17.180;2024-02-26T07:48:42;33.80;;;26.80;;
47912;SDS011;33676;51.006;17.180;2024-02-26T07:51:12;32.50;;;26.60;;
47912;SDS011;33676;51.006;17.180;2024-02-26T07:53:41;27.60;;;24.60;;
47912;SDS011;33676;51.006;17.180;2024-02-26T07:56:09;32.10;;;22.90;;
47912;SDS011;33676;51.006;17.180;2024-02-26T07:58:36;26.80;;;22.40;;
47912;SDS011;33676;51.006;17.180;2024-02-26T08:01:04;27.70;;;21.10;;
47912;SDS011;33676;51.006;17.180;2024-02-26T08:03:31;25.50;;;18.30;;
47912;SDS011;33676;51.006;17.180;2024-02-26T08:06:01;18.60;;;16.60;;
47912;SDS011;33676;51.006;17.180;2024-02-26T08:08:28;20.50;;;17.30;;
47912;SDS011;33676;51.006;17.180;2024-02-26T08:10:55;20.40;;;15.50;;
47912;SDS011;33676;51.006;17.180;2024-02-26T08:13:23;18.10;;;15.80;;
47912;SDS011;33676;51.006;17.180;2024-02-26T08:15:50;21.50;;;15.60;;
47912;SDS011;33676;51.006;17.180;2024-02-26T08:18:18;19.50;;;15.00;;
47912;SDS011;33676;51.006;17.180;2024-02-26T08:20:47;15.90;;;14.00;;
47912;SDS011;33676;51.006;17.180;2024-02-26T08:23:15;17.10;;;15.20;;
47912;SDS011;33676;51.006;17.180;2024-02-26T08:25:43;20.70;;;15.90;;
47912;SDS011;33676;51.006;17.180;2024-02-26T08:28:11;19.40;;;14.30;;
47912;SDS011;33676;51.006;17.180;2024-02-26T08:30:40;18.70;;;15.50;;
47912;SDS011;33676;51.006;17.180;2024-02-26T08:33:07;18.80;;;14.60;;
47912;SDS011;33676;51.006;17.180;2024-02-26T08:35:36;16.20;;;13.60;;
47912;SDS011;33676;51.006;17.180;2024-02-26T08:38:03;17.40;;;14.60;;
47912;SDS011;33676;51.006;17.180;2024-02-26T08:40:31;15.20;;;12.90;;
47912;SDS011;33676;51.006;17.180;2024-02-26T08:42:58;16.60;;;12.90;;
47912;SDS011;33676;51.006;17.180;2024-02-26T08:45:25;13.50;;;12.20;;
47912;SDS011;33676;51.006;17.180;2024-02-26T08:47:56;14.30;;;11.90;;
47912;SDS011;33676;51.006;17.180;2024-02-26T08:50:25;13.70;;;12.30;;
47912;SDS011;33676;51.006;17.180;2024-02-26T08:52:52;17.40;;;12.30;;
47912;SDS011;33676;51.006;17.180;2024-02-26T08:55:20;12.20;;;10.80;;
47912;SDS011;33676;51.006;17.180;2024-02-26T08:57:47;15.50;;;11.40;;
47912;SDS011;33676;51.006;17.180;2024-02-26T09:00:15;15.00;;;12.40;;
47912;SDS011;33676;51.006;17.180;2024-02-26T09:02:44;11.90;;;10.50;;
47912;SDS011;33676;51.006;17.180;2024-02-26T09:05:12;14.00;;;11.80;;
47912;SDS011;33676;51.006;17.180;2024-02-26T09:07:39;12.90;;;11.10;;
47912;SDS011;33676;51.006;17.180;2024-02-26T09:10:06;13.40;;;10.50;;
47912;SDS011;33676;51.006;17.180;2024-02-26T09:12:37;12.30;;;9.70;;
47912;SDS011;33676;51.006;17.180;2024-02-26T09:15:07;14.00;;;9.60;;
47912;SDS011;33676;51.006;17.180;2024-02-26T09:17:34;10.40;;;8.20;;
47912;SDS011;33676;51.006;17.180;2024-02-26T09:20:02;10.30;;;9.10;;
47912;SDS011;33676;51.006;17.180;2024-02-26T09:22:30;11.40;;;10.20;;
47912;SDS011;33676;51.006;17.180;2024-02-26T09:24:57;12.80;;;9.50;;
47912;SDS011;33676;51.006;17.180;2024-02-26T09:27:25;9.40;;;8.50;;
47912;SDS011;33676;51.006;17.180;2024-02-26T09:29:52;9.20;;;7.70;;
47912;SDS011;33676;51.006;17.180;2024-02-26T09:32:20;8.80;;;7.60;;
47912;SDS011;33676;51.006;17.180;2024-02-26T09:34:47;8.10;;;7.30;;
47912;SDS011;33676;51.006;17.180;2024-02-26T09:37:14;8.00;;;7.20;;
47912;SDS011;33676;51.006;17.180;2024-02-26T09:39:48;9.90;;;7.20;;
47912;SDS011;33676;51.006;17.180;2024-02-26T09:42:18;8.20;;;7.40;;
47912;SDS011;33676;51.006;17.180;2024-02-26T09:44:46;7.80;;;6.80;;
47912;SDS011;33676;51.006;17.180;2024-02-26T09:47:17;7.90;;;6.50;;
47912;SDS011;33676;51.006;17.180;2024-02-26T09:49:47;7.30;;;6.40;;
47912;SDS011;33676;51.006;17.180;2024-02-26T09:52:15;7.00;;;5.70;;
47912;SDS011;33676;51.006;17.180;2024-02-26T09:54:47;5.20;;;4.80;;
47912;SDS011;33676;51.006;17.180;2024-02-26T09:57:14;9.70;;;5.90;;
47912;SDS011;33676;51.006;17.180;2024-02-26T09:59:44;6.90;;;5.40;;
47912;SDS011;33676;51.006;17.180;2024-02-26T10:02:14;6.50;;;5.30;;
47912;SDS011;33676;51.006;17.180;2024-02-26T10:04:42;7.20;;;6.40;;
47912;SDS011;33676;51.006;17.180;2024-02-26T10:07:16;7.00;;;6.30;;
47912;SDS011;33676;51.006;17.180;2024-02-26T10:09:43;7.20;;;6.10;;
47912;SDS011;33676;51.006;17.180;2024-02-26T10:12:11;6.70;;;6.10;;
47912;SDS011;33676;51.006;17.180;2024-02-26T10:14:40;7.50;;;6.50;;
47912;SDS011;33676;51.006;17.180;2024-02-26T10:17:08;8.80;;;6.90;;
47912;SDS011;33676;51.006;17.180;2024-02-26T10:19:36;7.40;;;6.20;;
47912;SDS011;33676;51.006;17.180;2024-02-26T10:22:06;7.10;;;6.00;;
47912;SDS011;33676;51.006;17.180;2024-02-26T10:24:33;6.90;;;6.20;;
47912;SDS011;33676;51.006;17.180;2024-02-26T10:27:01;8.30;;;5.60;;
47912;SDS011;33676;51.006;17.180;2024-02-26T10:29:29;6.80;;;5.70;;
47912;SDS011;33676;51.006;17.180;2024-02-26T10:31:56;8.30;;;7.00;;
47912;SDS011;33676;51.006;17.180;2024-02-26T10:34:23;8.90;;;6.30;;
47912;SDS011;33676;51.006;17.180;2024-02-26T10:36:51;8.20;;;7.30;;
47912;SDS011;33676;51.006;17.180;2024-02-26T10:39:21;8.00;;;6.80;;
47912;SDS011;33676;51.006;17.180;2024-02-26T10:41:49;6.80;;;5.80;;
47912;SDS011;33676;51.006;17.180;2024-02-26T10:44:16;7.80;;;7.00;;
47912;SDS011;33676;51.006;17.180;2024-02-26T10:46:47;7.00;;;6.10;;
47912;SDS011;33676;51.006;17.180;2024-02-26T10:49:16;7.00;;;6.30;;
47912;SDS011;33676;51.006;17.180;2024-02-26T10:51:52;8.30;;;6.90;;
47912;SDS011;33676;51.006;17.180;2024-02-26T10:54:22;8.70;;;6.50;;
47912;SDS011;33676;51.006;17.180;2024-02-26T10:56:52;7.10;;;5.90;;
47912;SDS011;33676;51.006;17.180;2024-02-26T10:59:20;7.40;;;6.10;;
47912;SDS011;33676;51.006;17.180;2024-02-26T11:01:49;5.30;;;4.80;;
47912;SDS011;33676;51.006;17.180;2024-02-26T11:04:17;5.20;;;3.90;;
47912;SDS011;33676;51.006;17.180;2024-02-26T11:06:45;3.60;;;3.30;;
47912;SDS011;33676;51.006;17.180;2024-02-26T11:09:15;4.60;;;3.20;;
47912;SDS011;33676;51.006;17.180;2024-02-26T11:11:43;5.80;;;3.60;;
47912;SDS011;33676;51.006;17.180;2024-02-26T11:14:11;2.90;;;2.70;;
47912;SDS011;33676;51.006;17.180;2024-02-26T11:16:40;4.10;;;3.30;;
47912;SDS011;33676;51.006;17.180;2024-02-26T11:19:09;2.90;;;2.50;;
47912;SDS011;33676;51.006;17.180;2024-02-26T11:21:39;3.40;;;2.80;;
47912;SDS011;33676;51.006;17.180;2024-02-26T11:24:15;2.90;;;2.40;;
47912;SDS011;33676;51.006;17.180;2024-02-26T11:26:54;3.10;;;2.90;;
47912;SDS011;33676;51.006;17.180;2024-02-26T11:29:33;3.10;;;2.80;;
47912;SDS011;33676;51.006;17.180;2024-02-26T11:32:05;2.40;;;2.30;;
47912;SDS011;33676;51.006;17.180;2024-02-26T11:34:33;2.30;;;2.10;;
47912;SDS011;33676;51.006;17.180;2024-02-26T11:37:13;3.60;;;2.50;;
47912;SDS011;33676;51.006;17.180;2024-02-26T11:39:43;2.60;;;2.10;;
47912;SDS011;33676;51.006;17.180;2024-02-26T11:42:15;3.70;;;2.80;;
47912;SDS011;33676;51.006;17.180;2024-02-26T11:44:43;1.80;;;1.70;;
47912;SDS011;33676;51.006;17.180;2024-02-26T11:47:19;2.50;;;2.30;;
47912;SDS011;33676;51.006;17.180;2024-02-26T11:49:48;2.20;;;2.00;;
47912;SDS011;33676;51.006;17.180;2024-02-26T11:52:16;3.00;;;2.80;;
47912;SDS011;33676;51.006;17.180;2024-02-26T11:54:54;2.30;;;2.20;;
47912;SDS011;33676;51.006;17.180;2024-02-26T12:02:55;2.50;;;2.10;;
47912;SDS011;33676;51.006;17.180;2024-02-26T12:05:32;2.30;;;1.90;;
47912;SDS011;33676;51.006;17.180;2024-02-26T12:08:05;3.10;;;1.80;;
47912;SDS011;33676;51.006;17.180;2024-02-26T12:10:37;2.50;;;2.30;;
47912;SDS011;33676;51.006;17.180;2024-02-26T12:13:15;3.00;;;2.60;;
47912;SDS011;33676;51.006;17.180;2024-02-26T12:15:57;2.00;;;1.90;;
47912;SDS011;33676;51.006;17.180;2024-02-26T12:18:25;2.70;;;2.50;;
47912;SDS011;33676;51.006;17.180;2024-02-26T12:21:03;3.20;;;2.20;;
47912;SDS011;33676;51.006;17.180;2024-02-26T12:23:31;2.90;;;2.70;;
47912;SDS011;33676;51.006;17.180;2024-02-26T12:25:59;2.50;;;2.40;;
47912;SDS011;33676;51.006;17.180;2024-02-26T12:28:30;3.50;;;2.90;;
47912;SDS011;33676;51.006;17.180;2024-02-26T12:30:58;2.50;;;2.30;;
47912;SDS011;33676;51.006;17.180;2024-02-26T12:33:26;2.80;;;2.60;;
47912;SDS011;33676;51.006;17.180;2024-02-26T12:35:55;3.00;;;2.80;;
47912;SDS011;33676;51.006;17.180;2024-02-26T12:38:22;2.90;;;2.70;;
47912;SDS011;33676;51.006;17.180;2024-02-26T12:40:50;3.10;;;2.90;;
47912;SDS011;33676;51.006;17.180;2024-02-26T12:43:17;3.80;;;3.50;;
47912;SDS011;33676;51.006;17.180;2024-02-26T12:45:44;3.10;;;2.80;;
47912;SDS011;33676;51.006;17.180;2024-02-26T12:48:13;4.80;;;3.10;;
47912;SDS011;33676;51.006;17.180;2024-02-26T12:50:44;7.80;;;3.60;;
47912;SDS011;33676;51.006;17.180;2024-02-26T12:53:14;3.90;;;2.90;;
47912;SDS011;33676;51.006;17.180;2024-02-26T12:55:41;4.80;;;3.00;;
47912;SDS011;33676;51.006;17.180;2024-02-26T12:58:09;3.60;;;3.30;;
47912;SDS011;33676;51.006;17.180;2024-02-26T13:00:37;7.30;;;3.20;;
47912;SDS011;33676;51.006;17.180;2024-02-26T13:03:05;3.60;;;3.30;;
47912;SDS011;33676;51.006;17.180;2024-02-26T13:05:33;4.30;;;3.40;;
47912;SDS011;33676;51.006;17.180;2024-02-26T13:08:01;2.40;;;2.30;;
47912;SDS011;33676;51.006;17.180;2024-02-26T13:10:31;3.80;;;3.40;;
47912;SDS011;33676;51.006;17.180;2024-02-26T13:12:58;3.30;;;3.10;;
47912;SDS011;33676;51.006;17.180;2024-02-26T13:15:29;2.30;;;2.20;;
47912;SDS011;33676;51.006;17.180;2024-02-26T13:17:56;3.10;;;3.00;;
47912;SDS011;33676;51.006;17.180;2024-02-26T13:20:33;3.50;;;3.10;;
47912;SDS011;33676;51.006;17.180;2024-02-26T13:23:05;2.90;;;2.70;;
47912;SDS011;33676;51.006;17.180;2024-02-26T13:25:38;2.90;;;2.70;;
47912;SDS011;33676;51.006;17.180;2024-02-26T13:28:14;4.00;;;2.90;;
47912;SDS011;33676;51.006;17.180;2024-02-26T13:30:52;3.20;;;2.60;;
47912;SDS011;33676;51.006;17.180;2024-02-26T13:33:20;3.20;;;2.90;;
47912;SDS011;33676;51.006;17.180;2024-02-26T13:35:47;4.60;;;3.20;;
47912;SDS011;33676;51.006;17.180;2024-02-26T13:38:15;3.40;;;2.60;;
47912;SDS011;33676;51.006;17.180;2024-02-26T13:40:42;2.60;;;2.30;;
47912;SDS011;33676;51.006;17.180;2024-02-26T13:43:09;2.90;;;2.60;;
47912;SDS011;33676;51.006;17.180;2024-02-26T13:45:38;4.50;;;3.30;;
47912;SDS011;33676;51.006;17.180;2024-02-26T13:48:08;5.20;;;3.00;;
47912;SDS011;33676;51.006;17.180;2024-02-26T13:50:39;2.80;;;2.20;;
47912;SDS011;33676;51.006;17.180;2024-02-26T13:53:07;3.70;;;2.90;;
47912;SDS011;33676;51.006;17.180;2024-02-26T13:55:34;3.00;;;2.70;;
47912;SDS011;33676;51.006;17.180;2024-02-26T13:58:02;3.20;;;2.80;;
47912;SDS011;33676;51.006;17.180;2024-02-26T14:00:30;2.90;;;2.80;;
47912;SDS011;33676;51.006;17.180;2024-02-26T14:03:00;2.70;;;2.50;;
47912;SDS011;33676;51.006;17.180;2024-02-26T14:05:28;5.90;;;3.70;;
47912;SDS011;33676;51.006;17.180;2024-02-26T14:07:56;3.50;;;2.40;;
47912;SDS011;33676;51.006;17.180;2024-02-26T14:10:24;2.80;;;2.60;;
47912;SDS011;33676;51.006;17.180;2024-02-26T14:12:51;3.00;;;2.70;;
47912;SDS011;33676;51.006;17.180;2024-02-26T14:15:19;4.70;;;4.00;;
47912;SDS011;33676;51.006;17.180;2024-02-26T14:17:46;5.50;;;3.90;;
47912;SDS011;33676;51.006;17.180;2024-02-26T14:20:20;3.90;;;3.50;;
47912;SDS011;33676;51.006;17.180;2024-02-26T14:22:51;3.70;;;3.30;;
47912;SDS011;33676;51.006;17.180;2024-02-26T14:25:21;4.90;;;3.30;;
47912;SDS011;33676;51.006;17.180;2024-02-26T14:27:49;3.70;;;3.30;;
47912;SDS011;33676;51.006;17.180;2024-02-26T14:30:16;3.70;;;3.20;;
47912;SDS011;33676;51.006;17.180;2024-02-26T14:32:44;4.80;;;3.30;;
47912;SDS011;33676;51.006;17.180;2024-02-26T14:35:12;4.70;;;2.60;;
47912;SDS011;33676;51.006;17.180;2024-02-26T14:37:44;3.80;;;3.20;;
47912;SDS011;33676;51.006;17.180;2024-02-26T14:40:16;2.80;;;2.40;;